sensor_id;sensor_type;location;lat;lon;timestamp;temperature;humidity
37456;DHT22;23316;50.718;7.328;2023-03-23T00:00:22;15.60;50.90
37456;DHT22;23316;50.718;7.328;2023-03-23T00:02:49;15.70;51.00
37456;DHT22;23316;50.718;7.328;2023-03-23T00:05:16;15.70;51.10
37456;DHT22;23316;50.718;7.328;2023-03-23T00:07:43;15.70;51.10
37456;DHT22;23316;50.718;7.328;2023-03-23T00:10:11;15.60;51.00
37456;DHT22;23316;50.718;7.328;2023-03-23T00:12:41;15.70;51.00
37456;DHT22;23316;50.718;7.328;2023-03-23T00:15:09;15.70;51.00
37456;DHT22;23316;50.718;7.328;2023-03-23T00:17:39;15.70;51.00
37456;DHT22;23316;50.718;7.328;2023-03-23T00:20:07;15.70;51.00
37456;DHT22;23316;50.718;7.328;2023-03-23T00:22:37;15.70;51.00
37456;DHT22;23316;50.718;7.328;2023-03-23T00:25:07;15.70;50.90
37456;DHT22;23316;50.718;7.328;2023-03-23T00:27:35;15.70;50.90
37456;DHT22;23316;50.718;7.328;2023-03-23T00:30:05;15.70;50.90
37456;DHT22;23316;50.718;7.328;2023-03-23T00:32:33;15.70;51.00
37456;DHT22;23316;50.718;7.328;2023-03-23T00:35:00;15.70;51.00
37456;DHT22;23316;50.718;7.328;2023-03-23T00:37:27;15.70;51.00
37456;DHT22;23316;50.718;7.328;2023-03-23T00:39:54;15.70;51.00
37456;DHT22;23316;50.718;7.328;2023-03-23T00:42:23;15.70;51.00
37456;DHT22;23316;50.718;7.328;2023-03-23T00:44:51;15.70;51.00
37456;DHT22;23316;50.718;7.328;2023-03-23T00:47:27;15.70;51.00
37456;DHT22;23316;50.718;7.328;2023-03-23T00:49:54;15.70;51.10
37456;DHT22;23316;50.718;7.328;2023-03-23T00:52:22;15.70;51.10
37456;DHT22;23316;50.718;7.328;2023-03-23T00:54:50;15.70;51.00
37456;DHT22;23316;50.718;7.328;2023-03-23T00:57:17;15.70;51.00
37456;DHT22;23316;50.718;7.328;2023-03-23T00:59:44;15.70;51.00
37456;DHT22;23316;50.718;7.328;2023-03-23T01:02:11;15.70;50.90
37456;DHT22;23316;50.718;7.328;2023-03-23T01:04:40;15.70;50.80
37456;DHT22;23316;50.718;7.328;2023-03-23T01:07:11;15.70;50.90
37456;DHT22;23316;50.718;7.328;2023-03-23T01:09:39;15.70;50.80
37456;DHT22;23316;50.718;7.328;2023-03-23T01:12:10;15.70;50.80
37456;DHT22;23316;50.718;7.328;2023-03-23T01:14:38;15.70;50.80
37456;DHT22;23316;50.718;7.328;2023-03-23T01:17:05;15.70;50.80
37456;DHT22;23316;50.718;7.328;2023-03-23T01:19:37;15.70;50.80
37456;DHT22;23316;50.718;7.328;2023-03-23T01:22:07;15.70;50.80
37456;DHT22;23316;50.718;7.328;2023-03-23T01:24:35;15.70;50.90
37456;DHT22;23316;50.718;7.328;2023-03-23T01:27:02;15.70;51.00
37456;DHT22;23316;50.718;7.328;2023-03-23T01:29:32;15.70;51.00
37456;DHT22;23316;50.718;7.328;2023-03-23T01:32:00;15.70;51.00
37456;DHT22;23316;50.718;7.328;2023-03-23T01:34:27;15.70;51.10
37456;DHT22;23316;50.718;7.328;2023-03-23T01:36:54;15.70;51.10
37456;DHT22;23316;50.718;7.328;2023-03-23T01:39:23;15.70;51.10
37456;DHT22;23316;50.718;7.328;2023-03-23T01:41:50;15.70;51.10
37456;DHT22;23316;50.718;7.328;2023-03-23T01:47:22;15.70;51.40
37456;DHT22;23316;50.718;7.328;2023-03-23T01:49:52;15.70;51.40
37456;DHT22;23316;50.718;7.328;2023-03-23T01:52:22;15.70;51.50
37456;DHT22;23316;50.718;7.328;2023-03-23T01:54:52;15.70;52.00
37456;DHT22;23316;50.718;7.328;2023-03-23T01:57:25;15.70;51.50
37456;DHT22;23316;50.718;7.328;2023-03-23T01:59:55;15.60;51.50
37456;DHT22;23316;50.718;7.328;2023-03-23T02:02:25;15.60;51.50
37456;DHT22;23316;50.718;7.328;2023-03-23T02:04:57;15.60;51.60
37456;DHT22;23316;50.718;7.328;2023-03-23T02:07:26;15.60;51.60
37456;DHT22;23316;50.718;7.328;2023-03-23T02:09:55;15.60;51.60
37456;DHT22;23316;50.718;7.328;2023-03-23T02:12:22;15.60;51.60
37456;DHT22;23316;50.718;7.328;2023-03-23T02:14:50;15.60;51.60
37456;DHT22;23316;50.718;7.328;2023-03-23T02:17:23;15.60;51.60
37456;DHT22;23316;50.718;7.328;2023-03-23T02:20:06;15.60;51.70
37456;DHT22;23316;50.718;7.328;2023-03-23T02:23:13;15.60;52.00
37456;DHT22;23316;50.718;7.328;2023-03-23T02:26:03;15.60;51.90
37456;DHT22;23316;50.718;7.328;2023-03-23T02:28:50;15.60;51.90
37456;DHT22;23316;50.718;7.328;2023-03-23T02:34:24;15.50;52.00
37456;DHT22;23316;50.718;7.328;2023-03-23T02:36:59;15.50;52.00
37456;DHT22;23316;50.718;7.328;2023-03-23T02:39:29;15.50;52.00
37456;DHT22;23316;50.718;7.328;2023-03-23T02:42:00;15.60;52.00
37456;DHT22;23316;50.718;7.328;2023-03-23T02:44:30;15.50;52.00
37456;DHT22;23316;50.718;7.328;2023-03-23T02:47:00;15.50;52.10
37456;DHT22;23316;50.718;7.328;2023-03-23T02:49:32;15.50;52.10
37456;DHT22;23316;50.718;7.328;2023-03-23T02:52:07;15.50;52.30
37456;DHT22;23316;50.718;7.328;2023-03-23T02:54:38;15.50;52.30
37456;DHT22;23316;50.718;7.328;2023-03-23T02:57:07;15.50;52.30
37456;DHT22;23316;50.718;7.328;2023-03-23T02:59:34;15.40;52.20
37456;DHT22;23316;50.718;7.328;2023-03-23T03:02:05;15.40;52.30
37456;DHT22;23316;50.718;7.328;2023-03-23T03:04:35;15.40;52.40
37456;DHT22;23316;50.718;7.328;2023-03-23T03:07:14;15.40;52.40
37456;DHT22;23316;50.718;7.328;2023-03-23T03:09:47;15.40;52.40
37456;DHT22;23316;50.718;7.328;2023-03-23T03:12:23;15.40;52.50
37456;DHT22;23316;50.718;7.328;2023-03-23T03:14:58;15.40;52.60
37456;DHT22;23316;50.718;7.328;2023-03-23T03:17:35;15.40;52.60
37456;DHT22;23316;50.718;7.328;2023-03-23T03:20:08;15.40;52.70
37456;DHT22;23316;50.718;7.328;2023-03-23T03:22:39;15.40;52.70
37456;DHT22;23316;50.718;7.328;2023-03-23T03:25:09;15.30;52.70
37456;DHT22;23316;50.718;7.328;2023-03-23T03:27:39;15.30;52.80
37456;DHT22;23316;50.718;7.328;2023-03-23T03:30:10;15.40;52.80
37456;DHT22;23316;50.718;7.328;2023-03-23T03:32:42;15.40;52.90
37456;DHT22;23316;50.718;7.328;2023-03-23T03:35:14;15.30;52.90
37456;DHT22;23316;50.718;7.328;2023-03-23T03:37:42;15.30;52.90
37456;DHT22;23316;50.718;7.328;2023-03-23T03:40:12;15.30;52.90
37456;DHT22;23316;50.718;7.328;2023-03-23T03:42:41;15.30;52.90
37456;DHT22;23316;50.718;7.328;2023-03-23T03:45:13;15.30;53.10
37456;DHT22;23316;50.718;7.328;2023-03-23T03:47:41;15.30;53.00
37456;DHT22;23316;50.718;7.328;2023-03-23T03:50:09;15.30;53.00
37456;DHT22;23316;50.718;7.328;2023-03-23T03:52:38;15.30;53.10
37456;DHT22;23316;50.718;7.328;2023-03-23T03:55:07;15.30;53.10
37456;DHT22;23316;50.718;7.328;2023-03-23T03:57:35;15.30;53.00
37456;DHT22;23316;50.718;7.328;2023-03-23T04:00:02;15.20;53.00
37456;DHT22;23316;50.718;7.328;2023-03-23T04:02:41;15.20;53.00
37456;DHT22;23316;50.718;7.328;2023-03-23T04:05:09;15.20;53.10
37456;DHT22;23316;50.718;7.328;2023-03-23T04:07:41;15.20;53.10
37456;DHT22;23316;50.718;7.328;2023-03-23T04:10:10;15.20;53.20
37456;DHT22;23316;50.718;7.328;2023-03-23T04:12:39;15.20;53.20
37456;DHT22;23316;50.718;7.328;2023-03-23T04:15:07;15.20;53.20
37456;DHT22;23316;50.718;7.328;2023-03-23T04:17:34;15.10;53.20
37456;DHT22;23316;50.718;7.328;2023-03-23T04:20:02;15.20;53.30
37456;DHT22;23316;50.718;7.328;2023-03-23T04:22:33;15.20;53.40
37456;DHT22;23316;50.718;7.328;2023-03-23T04:25:02;15.20;53.50
37456;DHT22;23316;50.718;7.328;2023-03-23T04:27:32;15.20;53.50
37456;DHT22;23316;50.718;7.328;2023-03-23T04:30:02;15.20;53.60
37456;DHT22;23316;50.718;7.328;2023-03-23T04:32:30;15.20;53.50
37456;DHT22;23316;50.718;7.328;2023-03-23T04:34:58;15.20;53.50
37456;DHT22;23316;50.718;7.328;2023-03-23T04:37:27;15.20;53.60
37456;DHT22;23316;50.718;7.328;2023-03-23T04:39:55;15.20;53.60
37456;DHT22;23316;50.718;7.328;2023-03-23T04:42:29;15.20;53.60
37456;DHT22;23316;50.718;7.328;2023-03-23T04:44:58;15.20;53.60
37456;DHT22;23316;50.718;7.328;2023-03-23T04:47:27;15.20;53.60
37456;DHT22;23316;50.718;7.328;2023-03-23T04:49:56;15.20;53.60
37456;DHT22;23316;50.718;7.328;2023-03-23T04:52:24;15.20;53.60
37456;DHT22;23316;50.718;7.328;2023-03-23T04:54:52;15.20;53.60
37456;DHT22;23316;50.718;7.328;2023-03-23T04:57:19;15.20;54.10
37456;DHT22;23316;50.718;7.328;2023-03-23T04:59:48;15.20;53.60
37456;DHT22;23316;50.718;7.328;2023-03-23T05:02:15;15.20;53.60
37456;DHT22;23316;50.718;7.328;2023-03-23T05:04:43;15.20;53.60
37456;DHT22;23316;50.718;7.328;2023-03-23T05:07:12;15.20;53.60
37456;DHT22;23316;50.718;7.328;2023-03-23T05:09:40;15.20;53.60
37456;DHT22;23316;50.718;7.328;2023-03-23T05:12:09;15.20;53.60
37456;DHT22;23316;50.718;7.328;2023-03-23T05:14:40;15.20;54.20
37456;DHT22;23316;50.718;7.328;2023-03-23T05:17:10;15.20;53.70
37456;DHT22;23316;50.718;7.328;2023-03-23T05:19:39;15.20;53.70
37456;DHT22;23316;50.718;7.328;2023-03-23T05:22:08;15.20;53.70
37456;DHT22;23316;50.718;7.328;2023-03-23T05:24:38;15.20;53.70
37456;DHT22;23316;50.718;7.328;2023-03-23T05:27:09;15.20;53.60
37456;DHT22;23316;50.718;7.328;2023-03-23T05:29:37;15.20;53.70
37456;DHT22;23316;50.718;7.328;2023-03-23T05:32:07;15.20;53.70
37456;DHT22;23316;50.718;7.328;2023-03-23T05:34:36;15.20;53.70
37456;DHT22;23316;50.718;7.328;2023-03-23T05:37:07;15.20;53.70
37456;DHT22;23316;50.718;7.328;2023-03-23T05:39:36;15.10;53.70
37456;DHT22;23316;50.718;7.328;2023-03-23T05:42:12;15.20;53.70
37456;DHT22;23316;50.718;7.328;2023-03-23T05:44:39;15.20;53.70
37456;DHT22;23316;50.718;7.328;2023-03-23T05:47:08;15.20;53.80
37456;DHT22;23316;50.718;7.328;2023-03-23T05:49:37;15.20;53.60
37456;DHT22;23316;50.718;7.328;2023-03-23T05:52:05;15.20;53.60
37456;DHT22;23316;50.718;7.328;2023-03-23T05:54:33;15.20;53.70
37456;DHT22;23316;50.718;7.328;2023-03-23T05:57:02;15.10;53.60
37456;DHT22;23316;50.718;7.328;2023-03-23T05:59:29;15.10;53.60
37456;DHT22;23316;50.718;7.328;2023-03-23T06:01:57;15.10;53.70
37456;DHT22;23316;50.718;7.328;2023-03-23T06:04:25;15.10;53.70
37456;DHT22;23316;50.718;7.328;2023-03-23T06:06:54;15.10;53.70
37456;DHT22;23316;50.718;7.328;2023-03-23T06:09:22;15.00;53.70
37456;DHT22;23316;50.718;7.328;2023-03-23T06:11:51;15.10;53.70
37456;DHT22;23316;50.718;7.328;2023-03-23T06:14:18;15.10;53.70
37456;DHT22;23316;50.718;7.328;2023-03-23T06:16:45;15.10;53.60
37456;DHT22;23316;50.718;7.328;2023-03-23T06:19:13;15.00;53.50
37456;DHT22;23316;50.718;7.328;2023-03-23T06:21:40;15.10;53.50
37456;DHT22;23316;50.718;7.328;2023-03-23T06:24:09;15.10;53.40
37456;DHT22;23316;50.718;7.328;2023-03-23T06:26:38;15.10;53.40
37456;DHT22;23316;50.718;7.328;2023-03-23T06:29:07;15.10;53.40
37456;DHT22;23316;50.718;7.328;2023-03-23T06:31:38;15.10;53.40
37456;DHT22;23316;50.718;7.328;2023-03-23T06:34:07;15.10;53.40
37456;DHT22;23316;50.718;7.328;2023-03-23T06:36:34;15.10;53.30
37456;DHT22;23316;50.718;7.328;2023-03-23T06:39:02;15.20;53.40
37456;DHT22;23316;50.718;7.328;2023-03-23T06:41:32;15.20;53.30
37456;DHT22;23316;50.718;7.328;2023-03-23T06:44:00;15.20;53.30
37456;DHT22;23316;50.718;7.328;2023-03-23T06:46:27;15.20;53.30
37456;DHT22;23316;50.718;7.328;2023-03-23T06:48:55;15.20;53.30
37456;DHT22;23316;50.718;7.328;2023-03-23T06:51:23;15.20;53.20
37456;DHT22;23316;50.718;7.328;2023-03-23T06:53:50;15.20;53.20
37456;DHT22;23316;50.718;7.328;2023-03-23T06:56:17;15.30;53.20
37456;DHT22;23316;50.718;7.328;2023-03-23T06:58:46;15.30;53.20
37456;DHT22;23316;50.718;7.328;2023-03-23T07:01:13;15.30;53.10
37456;DHT22;23316;50.718;7.328;2023-03-23T07:03:42;15.30;53.10
37456;DHT22;23316;50.718;7.328;2023-03-23T07:06:10;15.30;53.10
37456;DHT22;23316;50.718;7.328;2023-03-23T07:08:40;15.40;53.00
37456;DHT22;23316;50.718;7.328;2023-03-23T07:11:07;15.40;53.00
37456;DHT22;23316;50.718;7.328;2023-03-23T07:13:36;15.40;52.90
37456;DHT22;23316;50.718;7.328;2023-03-23T07:16:07;15.40;52.90
37456;DHT22;23316;50.718;7.328;2023-03-23T07:18:35;15.40;52.80
37456;DHT22;23316;50.718;7.328;2023-03-23T07:21:02;15.40;52.80
37456;DHT22;23316;50.718;7.328;2023-03-23T07:23:30;15.40;52.60
37456;DHT22;23316;50.718;7.328;2023-03-23T07:25:57;15.40;52.60
37456;DHT22;23316;50.718;7.328;2023-03-23T07:28:24;15.40;52.50
37456;DHT22;23316;50.718;7.328;2023-03-23T07:30:52;15.40;52.50
37456;DHT22;23316;50.718;7.328;2023-03-23T07:33:21;15.50;52.50
37456;DHT22;23316;50.718;7.328;2023-03-23T07:35:48;15.50;52.40
37456;DHT22;23316;50.718;7.328;2023-03-23T07:38:15;15.50;52.30
37456;DHT22;23316;50.718;7.328;2023-03-23T07:40:43;15.50;52.40
37456;DHT22;23316;50.718;7.328;2023-03-23T07:43:13;15.50;52.30
37456;DHT22;23316;50.718;7.328;2023-03-23T07:45:40;15.50;52.30
37456;DHT22;23316;50.718;7.328;2023-03-23T07:48:07;15.60;52.30
37456;DHT22;23316;50.718;7.328;2023-03-23T07:50:36;15.50;52.20
37456;DHT22;23316;50.718;7.328;2023-03-23T07:53:04;15.60;52.00
37456;DHT22;23316;50.718;7.328;2023-03-23T07:55:32;15.60;51.90
37456;DHT22;23316;50.718;7.328;2023-03-23T07:57:59;15.60;51.80
37456;DHT22;23316;50.718;7.328;2023-03-23T08:00:26;15.60;51.70
37456;DHT22;23316;50.718;7.328;2023-03-23T08:02:56;15.70;51.60
37456;DHT22;23316;50.718;7.328;2023-03-23T08:05:25;15.70;51.50
37456;DHT22;23316;50.718;7.328;2023-03-23T08:07:54;15.70;51.40
37456;DHT22;23316;50.718;7.328;2023-03-23T08:10:23;15.70;51.40
37456;DHT22;23316;50.718;7.328;2023-03-23T08:12:52;15.70;51.40
37456;DHT22;23316;50.718;7.328;2023-03-23T08:15:20;15.80;51.30
37456;DHT22;23316;50.718;7.328;2023-03-23T08:17:48;15.80;51.20
37456;DHT22;23316;50.718;7.328;2023-03-23T08:20:16;15.80;51.20
37456;DHT22;23316;50.718;7.328;2023-03-23T08:22:49;15.80;51.10
37456;DHT22;23316;50.718;7.328;2023-03-23T08:25:19;15.90;51.10
37456;DHT22;23316;50.718;7.328;2023-03-23T08:27:47;15.90;51.20
37456;DHT22;23316;50.718;7.328;2023-03-23T08:30:16;15.90;51.00
37456;DHT22;23316;50.718;7.328;2023-03-23T08:32:46;15.90;50.90
37456;DHT22;23316;50.718;7.328;2023-03-23T08:35:14;15.90;50.80
37456;DHT22;23316;50.718;7.328;2023-03-23T08:37:42;15.90;50.80
37456;DHT22;23316;50.718;7.328;2023-03-23T08:40:12;16.00;50.80
37456;DHT22;23316;50.718;7.328;2023-03-23T08:42:43;16.00;50.80
37456;DHT22;23316;50.718;7.328;2023-03-23T08:45:12;16.00;50.80
37456;DHT22;23316;50.718;7.328;2023-03-23T08:47:42;16.00;50.60
37456;DHT22;23316;50.718;7.328;2023-03-23T08:50:15;16.00;50.50
37456;DHT22;23316;50.718;7.328;2023-03-23T08:52:43;16.00;50.40
37456;DHT22;23316;50.718;7.328;2023-03-23T08:55:11;16.00;50.40
37456;DHT22;23316;50.718;7.328;2023-03-23T08:57:39;16.00;50.40
37456;DHT22;23316;50.718;7.328;2023-03-23T09:00:15;16.10;50.50
37456;DHT22;23316;50.718;7.328;2023-03-23T09:02:45;16.10;50.40
37456;DHT22;23316;50.718;7.328;2023-03-23T09:05:14;16.10;50.50
37456;DHT22;23316;50.718;7.328;2023-03-23T09:07:44;16.20;50.50
37456;DHT22;23316;50.718;7.328;2023-03-23T09:10:15;16.10;50.40
37456;DHT22;23316;50.718;7.328;2023-03-23T09:12:44;16.20;50.40
37456;DHT22;23316;50.718;7.328;2023-03-23T09:15:16;16.20;50.20
37456;DHT22;23316;50.718;7.328;2023-03-23T09:17:45;16.20;50.10
37456;DHT22;23316;50.718;7.328;2023-03-23T09:20:17;16.30;50.10
37456;DHT22;23316;50.718;7.328;2023-03-23T09:22:51;16.30;50.10
37456;DHT22;23316;50.718;7.328;2023-03-23T09:25:20;16.30;50.00
37456;DHT22;23316;50.718;7.328;2023-03-23T09:27:49;16.30;50.00
37456;DHT22;23316;50.718;7.328;2023-03-23T09:30:25;16.40;49.90
37456;DHT22;23316;50.718;7.328;2023-03-23T09:32:55;16.40;49.80
37456;DHT22;23316;50.718;7.328;2023-03-23T09:35:23;16.40;49.80
37456;DHT22;23316;50.718;7.328;2023-03-23T09:37:58;16.40;49.90
37456;DHT22;23316;50.718;7.328;2023-03-23T09:40:30;16.40;49.80
37456;DHT22;23316;50.718;7.328;2023-03-23T09:43:08;16.40;49.70
37456;DHT22;23316;50.718;7.328;2023-03-23T09:45:46;16.40;49.70
37456;DHT22;23316;50.718;7.328;2023-03-23T09:48:30;16.40;49.60
37456;DHT22;23316;50.718;7.328;2023-03-23T09:51:03;16.40;49.40
37456;DHT22;23316;50.718;7.328;2023-03-23T09:53:36;16.40;49.40
37456;DHT22;23316;50.718;7.328;2023-03-23T09:56:09;16.40;49.40
37456;DHT22;23316;50.718;7.328;2023-03-23T09:58:43;16.40;49.50
37456;DHT22;23316;50.718;7.328;2023-03-23T10:01:17;16.40;49.60
37456;DHT22;23316;50.718;7.328;2023-03-23T10:03:46;16.40;49.70
37456;DHT22;23316;50.718;7.328;2023-03-23T10:06:17;16.40;49.70
37456;DHT22;23316;50.718;7.328;2023-03-23T10:08:48;16.40;50.10
37456;DHT22;23316;50.718;7.328;2023-03-23T10:11:22;16.50;49.60
37456;DHT22;23316;50.718;7.328;2023-03-23T10:14:01;16.50;49.60
37456;DHT22;23316;50.718;7.328;2023-03-23T10:16:38;16.50;49.50
37456;DHT22;23316;50.718;7.328;2023-03-23T10:19:12;16.50;49.50
37456;DHT22;23316;50.718;7.328;2023-03-23T10:21:42;16.50;49.60
37456;DHT22;23316;50.718;7.328;2023-03-23T10:24:15;16.50;49.70
37456;DHT22;23316;50.718;7.328;2023-03-23T10:26:48;16.50;49.70
37456;DHT22;23316;50.718;7.328;2023-03-23T10:29:26;16.50;49.70
37456;DHT22;23316;50.718;7.328;2023-03-23T10:31:59;16.50;49.80
37456;DHT22;23316;50.718;7.328;2023-03-23T10:34:31;16.50;49.70
37456;DHT22;23316;50.718;7.328;2023-03-23T10:37:04;16.50;49.70
37456;DHT22;23316;50.718;7.328;2023-03-23T10:39:40;16.50;49.70
37456;DHT22;23316;50.718;7.328;2023-03-23T10:42:11;16.50;49.70
37456;DHT22;23316;50.718;7.328;2023-03-23T10:44:44;16.50;49.80
37456;DHT22;23316;50.718;7.328;2023-03-23T10:47:13;16.50;50.00
37456;DHT22;23316;50.718;7.328;2023-03-23T10:49:43;16.50;50.10
37456;DHT22;23316;50.718;7.328;2023-03-23T10:52:27;16.50;50.20
37456;DHT22;23316;50.718;7.328;2023-03-23T10:54:58;16.50;50.30
37456;DHT22;23316;50.718;7.328;2023-03-23T10:57:27;16.50;50.80
37456;DHT22;23316;50.718;7.328;2023-03-23T11:00:00;16.60;50.50
37456;DHT22;23316;50.718;7.328;2023-03-23T11:02:37;16.60;50.50
37456;DHT22;23316;50.718;7.328;2023-03-23T11:05:15;16.60;50.40
37456;DHT22;23316;50.718;7.328;2023-03-23T11:07:49;16.60;50.40
37456;DHT22;23316;50.718;7.328;2023-03-23T11:10:22;16.60;50.30
37456;DHT22;23316;50.718;7.328;2023-03-23T11:12:51;16.70;50.30
37456;DHT22;23316;50.718;7.328;2023-03-23T11:15:25;16.70;50.40
37456;DHT22;23316;50.718;7.328;2023-03-23T11:18:00;16.70;50.20
37456;DHT22;23316;50.718;7.328;2023-03-23T11:20:28;16.70;50.20
37456;DHT22;23316;50.718;7.328;2023-03-23T11:22:56;16.80;50.30
37456;DHT22;23316;50.718;7.328;2023-03-23T11:25:24;16.80;50.20
37456;DHT22;23316;50.718;7.328;2023-03-23T11:27:52;16.80;50.30
37456;DHT22;23316;50.718;7.328;2023-03-23T11:30:23;16.80;50.20
37456;DHT22;23316;50.718;7.328;2023-03-23T11:32:54;16.80;50.20
37456;DHT22;23316;50.718;7.328;2023-03-23T11:35:27;16.90;50.10
37456;DHT22;23316;50.718;7.328;2023-03-23T11:37:56;16.80;50.00
37456;DHT22;23316;50.718;7.328;2023-03-23T11:40:25;16.90;50.10
37456;DHT22;23316;50.718;7.328;2023-03-23T11:42:59;16.90;50.10
37456;DHT22;23316;50.718;7.328;2023-03-23T11:45:33;16.90;50.10
37456;DHT22;23316;50.718;7.328;2023-03-23T11:48:19;16.90;50.20
37456;DHT22;23316;50.718;7.328;2023-03-23T11:50:53;16.90;50.20
37456;DHT22;23316;50.718;7.328;2023-03-23T11:53:32;16.90;50.00
37456;DHT22;23316;50.718;7.328;2023-03-23T11:56:07;16.90;50.10
37456;DHT22;23316;50.718;7.328;2023-03-23T11:58:39;17.00;50.10
37456;DHT22;23316;50.718;7.328;2023-03-23T12:01:13;17.00;50.20
37456;DHT22;23316;50.718;7.328;2023-03-23T12:04:03;17.00;50.10
37456;DHT22;23316;50.718;7.328;2023-03-23T12:06:41;17.00;49.80
37456;DHT22;23316;50.718;7.328;2023-03-23T12:09:21;17.10;49.60
37456;DHT22;23316;50.718;7.328;2023-03-23T12:11:59;17.10;49.60
37456;DHT22;23316;50.718;7.328;2023-03-23T12:14:37;17.20;49.60
37456;DHT22;23316;50.718;7.328;2023-03-23T12:17:17;17.10;49.50
37456;DHT22;23316;50.718;7.328;2023-03-23T12:20:01;17.20;49.40
37456;DHT22;23316;50.718;7.328;2023-03-23T12:22:46;17.20;49.20
37456;DHT22;23316;50.718;7.328;2023-03-23T12:28:33;17.30;49.30
37456;DHT22;23316;50.718;7.328;2023-03-23T12:31:11;17.30;49.30
37456;DHT22;23316;50.718;7.328;2023-03-23T12:33:48;17.20;48.80
37456;DHT22;23316;50.718;7.328;2023-03-23T12:36:30;17.20;48.70
37456;DHT22;23316;50.718;7.328;2023-03-23T12:39:13;17.30;48.80
37456;DHT22;23316;50.718;7.328;2023-03-23T12:41:47;17.30;48.80
37456;DHT22;23316;50.718;7.328;2023-03-23T12:44:20;17.30;48.60
37456;DHT22;23316;50.718;7.328;2023-03-23T12:47:01;17.30;48.60
37456;DHT22;23316;50.718;7.328;2023-03-23T12:49:34;17.30;48.70
37456;DHT22;23316;50.718;7.328;2023-03-23T12:52:08;17.40;48.70
37456;DHT22;23316;50.718;7.328;2023-03-23T12:54:44;17.40;49.00
37456;DHT22;23316;50.718;7.328;2023-03-23T12:57:21;17.40;48.50
37456;DHT22;23316;50.718;7.328;2023-03-23T12:59:55;17.40;48.50
37456;DHT22;23316;50.718;7.328;2023-03-23T13:02:26;17.40;48.50
37456;DHT22;23316;50.718;7.328;2023-03-23T13:05:00;17.40;48.50
37456;DHT22;23316;50.718;7.328;2023-03-23T13:07:33;17.40;48.50
37456;DHT22;23316;50.718;7.328;2023-03-23T13:10:07;17.50;48.50
37456;DHT22;23316;50.718;7.328;2023-03-23T13:12:36;17.50;48.50
37456;DHT22;23316;50.718;7.328;2023-03-23T13:15:20;17.50;48.30
37456;DHT22;23316;50.718;7.328;2023-03-23T13:17:54;17.50;48.20
37456;DHT22;23316;50.718;7.328;2023-03-23T13:20:40;17.50;48.10
37456;DHT22;23316;50.718;7.328;2023-03-23T13:23:14;17.40;48.00
37456;DHT22;23316;50.718;7.328;2023-03-23T13:25:54;17.50;48.10
37456;DHT22;23316;50.718;7.328;2023-03-23T13:28:25;17.40;47.80
37456;DHT22;23316;50.718;7.328;2023-03-23T13:30:59;17.40;47.90
37456;DHT22;23316;50.718;7.328;2023-03-23T13:33:30;17.40;47.80
37456;DHT22;23316;50.718;7.328;2023-03-23T13:36:04;17.40;47.90
37456;DHT22;23316;50.718;7.328;2023-03-23T13:38:33;17.40;48.00
37456;DHT22;23316;50.718;7.328;2023-03-23T13:41:08;17.40;48.10
37456;DHT22;23316;50.718;7.328;2023-03-23T13:43:38;17.40;48.20
37456;DHT22;23316;50.718;7.328;2023-03-23T13:46:23;17.40;48.30
37456;DHT22;23316;50.718;7.328;2023-03-23T13:49:13;17.40;48.30
37456;DHT22;23316;50.718;7.328;2023-03-23T13:51:53;17.40;48.10
37456;DHT22;23316;50.718;7.328;2023-03-23T13:54:30;17.40;48.00
37456;DHT22;23316;50.718;7.328;2023-03-23T13:57:00;17.40;48.10
37456;DHT22;23316;50.718;7.328;2023-03-23T13:59:32;17.50;48.30
37456;DHT22;23316;50.718;7.328;2023-03-23T14:02:29;17.50;48.00
37456;DHT22;23316;50.718;7.328;2023-03-23T14:05:07;17.50;48.00
37456;DHT22;23316;50.718;7.328;2023-03-23T14:07:52;17.50;48.10
37456;DHT22;23316;50.718;7.328;2023-03-23T14:10:19;17.50;47.80
37456;DHT22;23316;50.718;7.328;2023-03-23T14:12:49;17.50;48.00
37456;DHT22;23316;50.718;7.328;2023-03-23T14:15:17;17.50;48.30
37456;DHT22;23316;50.718;7.328;2023-03-23T14:17:45;17.50;47.70
37456;DHT22;23316;50.718;7.328;2023-03-23T14:20:24;17.50;47.80
37456;DHT22;23316;50.718;7.328;2023-03-23T14:22:56;17.50;47.80
37456;DHT22;23316;50.718;7.328;2023-03-23T14:25:27;17.50;48.00
37456;DHT22;23316;50.718;7.328;2023-03-23T14:27:58;17.50;47.90
37456;DHT22;23316;50.718;7.328;2023-03-23T14:30:33;17.60;47.90
37456;DHT22;23316;50.718;7.328;2023-03-23T14:33:04;17.60;48.00
37456;DHT22;23316;50.718;7.328;2023-03-23T14:35:36;17.60;47.80
37456;DHT22;23316;50.718;7.328;2023-03-23T14:38:04;17.60;47.90
37456;DHT22;23316;50.718;7.328;2023-03-23T14:40:34;17.60;47.90
37456;DHT22;23316;50.718;7.328;2023-03-23T14:43:05;17.60;47.80
37456;DHT22;23316;50.718;7.328;2023-03-23T14:45:32;17.70;47.90
37456;DHT22;23316;50.718;7.328;2023-03-23T14:48:01;17.70;47.90
37456;DHT22;23316;50.718;7.328;2023-03-23T14:50:35;17.70;48.30
37456;DHT22;23316;50.718;7.328;2023-03-23T14:53:11;17.70;47.80
37456;DHT22;23316;50.718;7.328;2023-03-23T14:55:42;17.70;47.60
37456;DHT22;23316;50.718;7.328;2023-03-23T14:58:14;17.70;47.60
37456;DHT22;23316;50.718;7.328;2023-03-23T15:00:44;17.70;47.70
37456;DHT22;23316;50.718;7.328;2023-03-23T15:03:17;17.70;47.70
37456;DHT22;23316;50.718;7.328;2023-03-23T15:05:47;17.70;47.70
37456;DHT22;23316;50.718;7.328;2023-03-23T15:08:20;17.60;47.60
37456;DHT22;23316;50.718;7.328;2023-03-23T15:10:53;17.60;47.50
37456;DHT22;23316;50.718;7.328;2023-03-23T15:13:22;17.60;47.60
37456;DHT22;23316;50.718;7.328;2023-03-23T15:15:50;17.60;47.60
37456;DHT22;23316;50.718;7.328;2023-03-23T15:18:29;17.60;47.70
37456;DHT22;23316;50.718;7.328;2023-03-23T15:21:08;17.70;47.80
37456;DHT22;23316;50.718;7.328;2023-03-23T15:23:44;17.70;47.90
37456;DHT22;23316;50.718;7.328;2023-03-23T15:26:23;17.70;47.80
37456;DHT22;23316;50.718;7.328;2023-03-23T15:29:13;17.70;47.70
37456;DHT22;23316;50.718;7.328;2023-03-23T15:31:43;17.80;47.80
37456;DHT22;23316;50.718;7.328;2023-03-23T15:34:19;17.80;47.90
37456;DHT22;23316;50.718;7.328;2023-03-23T15:36:55;17.80;47.90
37456;DHT22;23316;50.718;7.328;2023-03-23T15:39:23;17.80;47.70
37456;DHT22;23316;50.718;7.328;2023-03-23T15:41:52;17.80;47.70
37456;DHT22;23316;50.718;7.328;2023-03-23T15:44:24;17.80;47.50
37456;DHT22;23316;50.718;7.328;2023-03-23T15:47:04;17.80;47.40
37456;DHT22;23316;50.718;7.328;2023-03-23T15:49:37;17.90;47.40
37456;DHT22;23316;50.718;7.328;2023-03-23T15:52:09;17.90;47.80
37456;DHT22;23316;50.718;7.328;2023-03-23T15:54:36;17.80;47.10
37456;DHT22;23316;50.718;7.328;2023-03-23T15:57:04;17.90;47.20
37456;DHT22;23316;50.718;7.328;2023-03-23T15:59:33;17.80;47.10
37456;DHT22;23316;50.718;7.328;2023-03-23T16:02:01;17.80;47.10
37456;DHT22;23316;50.718;7.328;2023-03-23T16:04:28;17.80;47.10